Time;durP1;ratioP1;P1;durP2;ratioP2;P2;SDS_P1;SDS_P2;PMS_P1;PMS_P2;Temp;Humidity;BMP_temperature;BMP_pressure;BME280_temperature;BME280_humidity;BME280_pressure;Samples;Min_cycle;Max_cycle;Signal;HPM_P1;HPM_P2
2021/10/19 00:00:25;;;;;;;48.25;28.33;;;;;;;15.50;85.62;100810.72;5023729;28;20355;-73
2021/10/19 00:02:51;;;;;;;43.55;27.95;;;;;;;15.48;85.83;100814.56;5023629;28;20089;-73
2021/10/19 00:05:17;;;;;;;67.22;31.52;;;;;;;15.52;86.16;100818.56;5023259;28;20042;-73
2021/10/19 00:07:43;;;;;;;44.72;27.33;;;;;;;15.49;86.45;100816.25;5023382;28;20097;-73
2021/10/19 00:10:11;;;;;;;44.60;26.55;;;;;;;15.50;86.16;100815.25;5023621;28;20045;-73
2021/10/19 00:12:37;;;;;;;50.47;27.67;;;;;;;15.49;86.52;100813.56;5023440;28;20068;-73
2021/10/19 00:15:08;;;;;;;71.22;34.10;;;;;;;15.50;86.12;100818.75;5023323;28;20065;-73
2021/10/19 00:17:34;;;;;;;67.13;32.90;;;;;;;15.54;85.36;100816.56;5023309;28;20034;-73
2021/10/19 00:19:59;;;;;;;53.47;28.05;;;;;;;15.62;85.29;100811.28;5023063;28;20096;-72
2021/10/19 00:22:24;;;;;;;85.53;33.78;;;;;;;15.58;85.72;100820.59;5023448;28;20238;-73
2021/10/19 00:24:50;;;;;;;68.38;29.83;;;;;;;15.57;85.16;100814.44;5023199;28;20042;-73
2021/10/19 00:27:15;;;;;;;42.42;25.90;;;;;;;15.63;84.69;100823.63;5023380;28;20205;-73
2021/10/19 00:29:41;;;;;;;50.80;28.50;;;;;;;15.55;85.72;100819.06;5023006;28;20038;-73
2021/10/19 00:32:06;;;;;;;153.88;47.65;;;;;;;15.53;85.58;100814.91;5023116;28;20076;-73
2021/10/19 00:34:32;;;;;;;146.50;45.75;;;;;;;15.63;85.08;100816.47;5023157;28;20037;-72
2021/10/19 00:36:57;;;;;;;44.88;25.23;;;;;;;15.65;85.20;100816.28;5023054;28;20231;-72
2021/10/19 00:39:23;;;;;;;48.97;26.70;;;;;;;15.66;85.07;100814.44;5021453;28;20025;-73
2021/10/19 00:41:48;;;;;;;45.75;24.80;;;;;;;15.62;85.13;100817.47;5023054;28;20102;-73
2021/10/19 00:44:14;;;;;;;45.88;26.77;;;;;;;15.54;84.78;100809.41;5021421;28;20030;-73
2021/10/19 00:46:41;;;;;;;48.13;26.08;;;;;;;15.56;85.36;100812.72;5021653;28;20084;-73
2021/10/19 00:49:07;;;;;;;45.45;25.02;;;;;;;15.63;84.96;100824.47;5022658;28;20030;-73
2021/10/19 00:51:33;;;;;;;44.10;25.00;;;;;;;15.58;84.53;100824.09;5021578;28;20041;-73
2021/10/19 00:53:59;;;;;;;45.38;25.38;;;;;;;15.46;84.99;100821.91;5022148;28;20060;-73
2021/10/19 00:56:25;;;;;;;39.25;23.88;;;;;;;15.45;86.04;100822.91;5022991;28;20038;-73
2021/10/19 00:58:50;;;;;;;38.97;24.15;;;;;;;15.48;85.49;100819.91;5022444;28;20069;-73
2021/10/19 01:01:17;;;;;;;35.05;23.77;;;;;;;15.52;85.80;100822.06;5022687;28;20034;-73
2021/10/19 01:03:43;;;;;;;40.30;24.55;;;;;;;15.52;86.29;100822.06;5022546;28;20022;-72
2021/10/19 01:06:09;;;;;;;41.55;24.13;;;;;;;15.53;85.62;100823.75;5022555;28;20065;-72
2021/10/19 01:08:37;;;;;;;38.75;24.63;;;;;;;15.53;85.45;100814.91;5022312;28;20030;-73
2021/10/19 01:11:06;;;;;;;34.90;23.20;;;;;;;15.55;85.96;100813.72;5022520;28;20271;-73
2021/10/19 01:13:32;;;;;;;41.53;24.80;;;;;;;15.42;86.44;100810.75;5022466;28;20034;-73
2021/10/19 01:16:06;;;;;;;40.42;24.63;;;;;;;15.46;86.35;100821.91;5022646;28;20517;-73
2021/10/19 01:18:32;;;;;;;44.65;24.98;;;;;;;15.48;86.50;100826.09;5020452;28;20052;-73
2021/10/19 01:20:58;;;;;;;42.53;23.30;;;;;;;15.30;86.32;100822.75;5020957;28;20231;-73
2021/10/19 01:23:23;;;;;;;35.85;23.80;;;;;;;15.37;86.05;100820.25;5022105;28;20064;-73
2021/10/19 01:25:48;;;;;;;32.15;21.23;;;;;;;15.43;85.85;100816.91;5022304;28;20048;-73
2021/10/19 01:28:14;;;;;;;36.50;22.80;;;;;;;15.40;86.21;100818.06;5022277;28;20085;-73
2021/10/19 01:30:41;;;;;;;34.00;22.40;;;;;;;15.36;86.46;100813.25;5022333;28;20108;-73
2021/10/19 01:33:07;;;;;;;37.85;22.50;;;;;;;15.33;86.73;100815.25;5022159;28;20030;-73
2021/10/19 01:35:59;;;;;;;36.90;23.20;;;;;;;15.25;87.10;100815.25;5022182;28;20264;-72
2021/10/19 01:38:27;;;;;;;42.05;23.45;;;;;;;15.21;87.82;100821.06;5020026;28;20066;-73
2021/10/19 01:40:55;;;;;;;39.28;22.92;;;;;;;15.19;87.98;100815.06;5022250;28;20071;-73
2021/10/19 01:43:23;;;;;;;35.97;23.02;;;;;;;15.25;87.72;100819.75;5022127;28;20335;-73
2021/10/19 01:45:51;;;;;;;41.33;25.13;;;;;;;15.27;87.81;100823.09;5022066;28;20331;-73
2021/10/19 01:48:17;;;;;;;38.45;23.75;;;;;;;15.23;87.78;100819.91;5021919;28;20051;-73
2021/10/19 01:50:42;;;;;;;31.60;21.92;;;;;;;15.37;87.56;100833.59;5021944;28;20283;-73
2021/10/19 01:53:09;;;;;;;36.13;23.38;;;;;;;15.40;87.17;100838.59;5020527;28;20248;-73
2021/10/19 01:55:37;;;;;;;33.95;21.80;;;;;;;15.41;87.52;100834.94;5022134;28;20227;-73
2021/10/19 01:58:03;;;;;;;37.20;23.90;;;;;;;15.32;87.68;100834.09;5021919;28;20058;-73
2021/10/19 02:00:29;;;;;;;32.95;21.65;;;;;;;15.36;87.45;100837.25;5022543;28;20050;-73
2021/10/19 02:02:57;;;;;;;37.47;23.55;;;;;;;15.39;87.38;100834.25;5021963;28;20060;-73
2021/10/19 02:05:22;;;;;;;38.35;23.98;;;;;;;15.41;87.38;100834.94;5021772;28;20065;-72
2021/10/19 02:07:48;;;;;;;49.08;28.13;;;;;;;15.43;86.91;100838.25;5022088;28;20076;-72
2021/10/19 02:10:14;;;;;;;53.88;26.02;;;;;;;15.44;87.19;100839.94;5021767;28;20235;-73
2021/10/19 02:12:40;;;;;;;39.20;23.58;;;;;;;15.47;86.54;100836.94;5022411;28;20041;-73
2021/10/19 02:15:08;;;;;;;36.30;22.90;;;;;;;15.42;86.66;100845.44;5021789;28;20049;-73
2021/10/19 02:17:34;;;;;;;41.97;23.30;;;;;;;15.34;86.88;100832.91;5021759;28;20041;-73
2021/10/19 02:20:02;;;;;;;38.25;24.48;;;;;;;15.32;86.86;100850.94;5021890;28;20042;-73
2021/10/19 02:22:28;;;;;;;35.28;23.48;;;;;;;15.05;87.07;100845.91;5021630;28;20097;-73
2021/10/19 02:24:57;;;;;;;43.92;23.98;;;;;;;15.14;85.45;100849.41;5021635;28;20046;-73
2021/10/19 02:27:23;;;;;;;36.83;22.13;;;;;;;15.00;85.36;100854.41;5021886;28;20038;-74
2021/10/19 02:29:48;;;;;;;35.28;22.30;;;;;;;14.80;85.56;100858.34;5022003;28;20057;-73
2021/10/19 02:32:14;;;;;;;38.90;21.88;;;;;;;14.70;85.06;100852.31;5025316;28;20378;-73
2021/10/19 02:34:40;;;;;;;34.35;22.80;;;;;;;14.65;86.39;100870.63;5025279;28;20335;-73
2021/10/19 02:37:05;;;;;;;37.45;23.67;;;;;;;14.61;86.19;100869.28;5025201;28;20040;-72
2021/10/19 02:39:31;;;;;;;35.33;20.48;;;;;;;14.53;86.82;100866.56;5025021;28;20096;-72
2021/10/19 02:41:56;;;;;;;34.90;21.10;;;;;;;14.37;87.78;100868.13;5025180;28;20342;-73
2021/10/19 02:44:22;;;;;;;39.58;21.15;;;;;;;14.51;87.48;100869.38;5025073;28;20061;-73
2021/10/19 02:46:48;;;;;;;38.45;22.10;;;;;;;14.41;87.67;100878.47;5024987;28;20033;-73
2021/10/19 02:49:13;;;;;;;33.13;20.15;;;;;;;14.43;87.93;100881.81;5024806;28;20064;-73
2021/10/19 02:51:39;;;;;;;33.00;19.70;;;;;;;14.36;88.40;100881.59;5024734;28;20037;-73
2021/10/19 02:54:04;;;;;;;30.15;20.80;;;;;;;14.31;89.06;100882.06;5024360;28;20045;-73
2021/10/19 02:56:30;;;;;;;32.97;20.75;;;;;;;14.11;90.38;100871.81;5024934;28;20041;-73
2021/10/19 02:58:55;;;;;;;32.03;19.67;;;;;;;14.12;90.67;100884.97;5024894;28;20034;-73
2021/10/19 03:01:21;;;;;;;34.90;21.73;;;;;;;13.88;92.37;100876.81;5024714;28;20034;-73
2021/10/19 03:03:46;;;;;;;38.92;20.92;;;;;;;13.85;92.98;100882.44;5024642;28;20034;-73
2021/10/19 03:06:12;;;;;;;34.92;21.20;;;;;;;13.87;93.24;100891.94;5024659;28;20046;-72
2021/10/19 03:08:37;;;;;;;30.92;20.13;;;;;;;13.84;93.33;100881.63;5024409;28;20044;-72
2021/10/19 03:11:03;;;;;;;31.98;21.15;;;;;;;13.97;92.89;100887.38;5024584;28;20029;-73
2021/10/19 03:13:29;;;;;;;31.02;20.92;;;;;;;13.89;93.67;100886.47;5024601;28;20207;-73
2021/10/19 03:15:55;;;;;;;32.00;20.58;;;;;;;13.82;93.59;100896.06;5024516;28;20052;-73
2021/10/19 03:18:22;;;;;;;31.88;19.23;;;;;;;13.84;93.89;100891.44;5024074;28;20044;-73
2021/10/19 03:20:47;;;;;;;33.55;20.58;;;;;;;13.59;94.41;100898.38;5024307;28;20068;-73
2021/10/19 03:23:13;;;;;;;28.17;19.05;;;;;;;13.54;94.12;100879.38;5024124;28;20308;-73
2021/10/19 03:25:38;;;;;;;29.08;19.10;;;;;;;13.60;94.53;100892.06;5024208;28;20041;-73
2021/10/19 03:28:04;;;;;;;29.05;18.38;;;;;;;13.66;93.74;100892.28;5024150;28;20025;-73
2021/10/19 03:30:30;;;;;;;29.27;17.70;;;;;;;13.70;91.96;100888.34;5022953;28;20033;-73
2021/10/19 03:32:55;;;;;;;32.20;19.23;;;;;;;13.74;92.45;100892.34;5024030;28;20076;-73
2021/10/19 03:35:21;;;;;;;34.65;21.85;;;;;;;13.66;92.72;100894.94;5024012;28;20060;-73
2021/10/19 03:37:46;;;;;;;48.60;27.30;;;;;;;13.72;91.66;100897.00;5022924;28;20109;-72
2021/10/19 03:40:12;;;;;;;48.28;26.23;;;;;;;13.88;90.80;100901.63;5023971;28;20026;-72
2021/10/19 03:42:41;;;;;;;43.67;25.40;;;;;;;13.82;90.67;100904.06;5023616;28;20030;-73
2021/10/19 03:45:08;;;;;;;76.78;37.13;;;;;;;13.84;88.70;100905.56;5023563;28;20319;-73
2021/10/19 03:47:33;;;;;;;76.50;38.88;;;;;;;13.71;89.00;100903.31;5023829;28;20046;-73
2021/10/19 03:49:59;;;;;;;65.72;36.35;;;;;;;13.88;88.16;100911.44;5023797;28;20343;-73
2021/10/19 03:52:24;;;;;;;40.95;24.67;;;;;;;13.93;87.76;100911.78;5023740;28;20406;-73
2021/10/19 03:54:50;;;;;;;33.40;20.05;;;;;;;14.02;83.29;100909.03;5023429;28;20038;-73
2021/10/19 03:57:15;;;;;;;33.13;20.00;;;;;;;13.77;81.90;100912.50;5022572;28;20093;-73
2021/10/19 03:59:41;;;;;;;46.05;27.27;;;;;;;13.82;79.49;100918.19;5023910;28;20120;-73
2021/10/19 04:02:06;;;;;;;60.22;34.97;;;;;;;13.75;78.05;100914.50;5024128;28;20216;-73
2021/10/19 04:04:34;;;;;;;49.65;30.67;;;;;;;13.58;78.80;100918.00;5023537;28;20227;-73
2021/10/19 04:06:59;;;;;;;33.47;21.77;;;;;;;13.43;78.16;100926.50;5023528;28;20033;-72
2021/10/19 04:09:25;;;;;;;30.63;19.73;;;;;;;13.37;77.25;100936.91;5023332;28;20101;-73
2021/10/19 04:11:50;;;;;;;37.03;24.08;;;;;;;13.47;76.57;100931.50;5023506;28;20371;-73
2021/10/19 04:14:16;;;;;;;34.20;21.98;;;;;;;13.51;76.15;100940.84;5023492;28;20025;-73
2021/10/19 04:16:41;;;;;;;34.47;21.75;;;;;;;13.49;75.09;100935.69;5023258;28;20034;-72
2021/10/19 04:19:06;;;;;;;32.90;21.73;;;;;;;13.44;74.53;100937.97;5023076;28;20132;-73
2021/10/19 04:21:32;;;;;;;29.88;20.75;;;;;;;13.39;73.78;100927.78;5023055;28;20026;-73
2021/10/19 04:23:57;;;;;;;33.17;20.95;;;;;;;13.55;73.09;100943.09;5023027;28;20060;-73
2021/10/19 04:26:23;;;;;;;33.28;20.65;;;;;;;13.65;72.60;100940.34;5023170;28;20092;-73
2021/10/19 04:28:48;;;;;;;34.75;20.75;;;;;;;13.52;72.11;100946.03;5021886;28;20261;-73
2021/10/19 04:31:14;;;;;;;34.97;19.85;;;;;;;13.49;72.06;100954.31;5023172;28;20034;-73
2021/10/19 04:33:40;;;;;;;38.53;22.13;;;;;;;13.46;72.68;100959.09;5022908;28;20034;-73
2021/10/19 04:36:06;;;;;;;34.00;21.50;;;;;;;13.49;72.80;100945.50;5023014;28;20280;-73
2021/10/19 04:38:32;;;;;;;36.90;21.38;;;;;;;13.46;72.55;100954.63;5021677;28;20214;-73
2021/10/19 04:40:58;;;;;;;34.47;21.33;;;;;;;13.42;72.89;100954.06;5022925;28;20038;-73
2021/10/19 04:43:24;;;;;;;35.45;21.77;;;;;;;13.43;72.59;100955.75;5021642;28;20097;-72
2021/10/19 04:45:53;;;;;;;38.25;21.55;;;;;;;13.46;72.86;100957.28;5022765;28;20072;-72
2021/10/19 04:48:18;;;;;;;36.47;22.05;;;;;;;13.42;72.24;100955.91;5022581;28;20034;-73
2021/10/19 04:50:44;;;;;;;34.88;21.48;;;;;;;13.38;72.38;100949.22;5022707;28;20275;-73
2021/10/19 04:53:09;;;;;;;34.33;21.60;;;;;;;13.58;71.28;100958.75;5020460;28;20025;-73
2021/10/19 04:55:35;;;;;;;33.75;21.48;;;;;;;13.51;71.58;100972.78;5022737;28;20065;-73
2021/10/19 04:58:00;;;;;;;38.00;21.20;;;;;;;13.49;71.41;100975.59;5022591;28;20030;-73
2021/10/19 05:00:26;;;;;;;31.00;19.45;;;;;;;13.49;71.16;100982.75;5022667;28;20093;-73
2021/10/19 05:02:51;;;;;;;29.98;18.85;;;;;;;13.53;71.20;100978.81;5022667;28;20315;-73
2021/10/19 05:05:18;;;;;;;34.33;21.30;;;;;;;13.48;70.55;100975.75;5022426;28;20351;-73
2021/10/19 05:07:44;;;;;;;30.40;18.63;;;;;;;13.33;68.68;100984.25;5022583;28;20055;-73
2021/10/19 05:10:09;;;;;;;30.27;19.10;;;;;;;13.39;68.96;100980.16;5022541;28;20319;-73
2021/10/19 05:12:35;;;;;;;33.97;19.70;;;;;;;13.29;69.12;100996.16;5022591;28;20089;-72
2021/10/19 05:15:01;;;;;;;33.78;19.88;;;;;;;13.27;69.04;100995.47;5022202;28;20017;-72
2021/10/19 05:17:27;;;;;;;31.50;19.20;;;;;;;13.29;69.37;100995.34;5022379;28;20088;-73
2021/10/19 05:19:54;;;;;;;37.90;21.10;;;;;;;13.18;70.08;100995.53;5022411;28;20034;-73
2021/10/19 05:22:19;;;;;;;36.17;21.50;;;;;;;13.30;69.91;100997.84;5022128;28;20042;-73
2021/10/19 05:24:45;;;;;;;35.25;20.33;;;;;;;13.22;69.96;100992.44;5020930;28;20033;-73
2021/10/19 05:27:10;;;;;;;35.88;20.33;;;;;;;13.18;69.55;101003.53;5022393;28;20042;-73
2021/10/19 05:29:36;;;;;;;34.25;20.25;;;;;;;13.14;69.61;101002.09;5022602;28;20033;-73
2021/10/19 05:32:04;;;;;;;40.33;22.50;;;;;;;13.22;69.20;101002.22;5022304;28;20221;-73
2021/10/19 05:34:29;;;;;;;50.22;22.73;;;;;;;13.10;69.34;101001.56;5022233;28;20040;-73
2021/10/19 05:36:55;;;;;;;51.22;25.40;;;;;;;13.29;69.11;101009.47;5022575;28;20050;-73
2021/10/19 05:39:20;;;;;;;52.58;25.98;;;;;;;13.16;69.52;101016.94;5022112;28;20040;-73
2021/10/19 05:41:45;;;;;;;44.22;23.35;;;;;;;12.93;69.12;100984.56;5022342;28;20234;-73
2021/10/19 05:44:11;;;;;;;46.03;23.55;;;;;;;13.18;69.35;101024.78;5022234;28;20089;-72
2021/10/19 05:46:36;;;;;;;44.03;22.85;;;;;;;13.13;69.26;101027.03;5022133;28;20042;-72
2021/10/19 05:49:02;;;;;;;35.58;21.02;;;;;;;13.15;69.81;101036.53;5022116;28;20084;-73
2021/10/19 05:51:28;;;;;;;31.50;18.20;;;;;;;13.22;69.37;101039.47;5021961;28;20034;-73
2021/10/19 05:53:54;;;;;;;31.95;19.27;;;;;;;13.22;69.43;101040.31;5021727;28;20213;-73
2021/10/19 05:56:19;;;;;;;29.30;18.45;;;;;;;13.03;69.26;101048.34;5022174;28;20033;-73
2021/10/19 05:58:45;;;;;;;28.77;18.95;;;;;;;13.03;69.70;101046.53;5022075;28;20033;-73
2021/10/19 06:01:10;;;;;;;34.17;18.70;;;;;;;13.00;69.86;101051.28;5022033;28;20278;-73
2021/10/19 06:03:36;;;;;;;35.97;20.63;;;;;;;12.93;69.17;101047.53;5021800;28;20034;-73
2021/10/19 06:06:02;;;;;;;30.92;18.65;;;;;;;12.99;69.90;101050.47;5025390;28;20065;-73
2021/10/19 06:08:27;;;;;;;30.27;19.15;;;;;;;13.08;68.93;101062.03;5025556;28;20307;-73
2021/10/19 06:10:56;;;;;;;31.55;19.48;;;;;;;13.03;68.75;101065.13;5025728;28;20098;-73
2021/10/19 06:13:22;;;;;;;29.50;18.35;;;;;;;13.00;69.15;101068.09;5025642;28;20088;-73
2021/10/19 06:15:47;;;;;;;36.70;18.40;;;;;;;13.09;68.67;101071.69;5025555;28;20037;-72
2021/10/19 06:18:13;;;;;;;24.58;15.95;;;;;;;13.37;68.42;101073.41;5025264;28;20350;-73
2021/10/19 06:20:39;;;;;;;24.25;16.20;;;;;;;13.78;66.92;101073.06;5025371;28;20079;-73
2021/10/19 06:23:04;;;;;;;25.45;16.15;;;;;;;14.00;65.52;101076.13;5025263;28;20033;-73
2021/10/19 06:25:30;;;;;;;25.85;15.05;;;;;;;14.10;64.48;101077.88;5025382;28;20030;-73
2021/10/19 06:27:55;;;;;;;24.50;16.15;;;;;;;14.15;64.11;101070.25;5025380;28;20088;-73
2021/10/19 06:30:21;;;;;;;23.70;15.20;;;;;;;14.25;63.97;101079.00;5025234;28;20231;-73
2021/10/19 06:32:46;;;;;;;26.92;16.25;;;;;;;14.40;63.18;101069.47;5025472;28;20041;-73
2021/10/19 06:35:11;;;;;;;27.55;16.13;;;;;;;14.51;62.64;101085.25;5025398;28;20060;-72
2021/10/19 06:37:38;;;;;;;26.83;15.88;;;;;;;14.89;62.61;101080.53;5025340;28;20141;-72
2021/10/19 06:40:07;;;;;;;24.85;16.30;;;;;;;15.18;62.17;101083.72;5025120;28;20083;-73
2021/10/19 06:42:34;;;;;;;21.98;15.05;;;;;;;15.20;62.06;101091.56;5025244;28;20046;-73
2021/10/19 06:45:02;;;;;;;24.25;15.05;;;;;;;15.38;60.70;101086.13;5024672;28;20049;-73
2021/10/19 06:47:29;;;;;;;25.45;15.65;;;;;;;15.81;60.46;101102.03;5025031;28;20038;-73
2021/10/19 06:49:55;;;;;;;21.42;13.77;;;;;;;15.92;59.21;101095.53;5025030;28;20053;-73
2021/10/19 06:52:20;;;;;;;21.65;14.23;;;;;;;16.24;58.50;101108.94;5024738;28;20040;-73
2021/10/19 06:54:46;;;;;;;22.60;13.55;;;;;;;16.29;57.91;101103.94;5024483;28;20224;-73
2021/10/19 06:57:12;;;;;;;25.02;15.30;;;;;;;16.41;57.79;101107.13;5023877;28;20204;-73
2021/10/19 06:59:37;;;;;;;25.38;15.18;;;;;;;16.64;56.79;101109.94;5024967;28;20099;-73
2021/10/19 07:02:03;;;;;;;20.98;13.48;;;;;;;16.80;56.19;101106.50;5024840;28;20068;-73
2021/10/19 07:04:28;;;;;;;25.50;13.10;;;;;;;17.03;54.49;101110.13;5024589;28;20022;-73
2021/10/19 07:06:54;;;;;;;17.95;12.15;;;;;;;16.99;53.05;101116.00;5024777;28;20034;-73
2021/10/19 07:09:19;;;;;;;18.17;10.93;;;;;;;16.80;52.85;101107.31;5024444;28;20045;-73
2021/10/19 07:11:45;;;;;;;20.70;12.07;;;;;;;16.93;52.55;101114.84;5024701;28;20076;-73
2021/10/19 07:14:10;;;;;;;17.92;12.02;;;;;;;16.82;52.96;101108.00;5024660;28;20089;-72
2021/10/19 07:16:35;;;;;;;19.05;10.93;;;;;;;17.05;52.37;101117.97;5023716;28;20216;-72
2021/10/19 07:19:03;;;;;;;16.35;11.10;;;;;;;17.26;51.17;101112.91;5024366;28;20218;-73
2021/10/19 07:21:28;;;;;;;19.92;11.82;;;;;;;17.30;51.20;101122.25;5024370;28;20034;-73
2021/10/19 07:23:54;;;;;;;20.27;13.00;;;;;;;17.34;52.50;101117.41;5024313;28;20029;-73
2021/10/19 07:26:19;;;;;;;18.75;12.35;;;;;;;17.27;50.96;101121.78;5024461;28;20108;-73
2021/10/19 07:28:45;;;;;;;20.67;11.70;;;;;;;17.10;51.16;101111.13;5024247;28;20098;-73
2021/10/19 07:31:10;;;;;;;19.77;11.93;;;;;;;17.21;51.13;101115.25;5024236;28;20038;-73
2021/10/19 07:33:36;;;;;;;17.45;10.77;;;;;;;17.17;50.48;101114.78;5023982;28;20376;-73
2021/10/19 07:36:01;;;;;;;19.25;11.50;;;;;;;17.21;50.76;101115.25;5024317;28;20038;-73
2021/10/19 07:38:27;;;;;;;21.20;11.93;;;;;;;17.28;50.70;101121.59;5024001;28;20051;-73
2021/10/19 07:40:52;;;;;;;18.00;10.75;;;;;;;17.29;50.61;101115.25;5024052;28;20037;-73
2021/10/19 07:43:17;;;;;;;17.55;10.85;;;;;;;17.37;51.00;101115.22;5023926;28;20293;-73
2021/10/19 07:45:43;;;;;;;17.67;11.10;;;;;;;17.45;51.02;101114.34;5023811;28;20100;-73
2021/10/19 07:48:08;;;;;;;21.85;11.68;;;;;;;17.48;50.77;101116.69;5022521;28;20371;-73
2021/10/19 07:50:34;;;;;;;22.67;12.90;;;;;;;17.60;50.93;101109.94;5023831;28;20037;-73
2021/10/19 07:53:00;;;;;;;18.83;12.32;;;;;;;17.67;50.99;101112.78;5023636;28;20030;-73
2021/10/19 07:55:27;;;;;;;17.23;11.00;;;;;;;17.97;50.12;101111.97;5023560;28;20092;-72
2021/10/19 07:57:53;;;;;;;21.27;11.30;;;;;;;18.05;49.20;101108.41;5023736;28;20077;-74
2021/10/19 08:00:27;;;;;;;20.35;11.45;;;;;;;17.95;49.91;101111.31;5023376;28;20092;-74
2021/10/19 08:02:54;;;;;;;23.75;11.55;;;;;;;17.81;49.46;101104.03;5023654;28;20037;-73
2021/10/19 08:05:20;;;;;;;18.52;11.88;;;;;;;18.03;50.19;101110.44;5023371;28;20112;-73
2021/10/19 08:07:51;;;;;;;17.35;11.40;;;;;;;18.02;49.20;101108.75;5023646;28;20029;-74
2021/10/19 08:10:19;;;;;;;21.52;12.85;;;;;;;17.99;49.18;101115.31;5023420;28;20224;-73
2021/10/19 08:12:46;;;;;;;17.02;10.35;;;;;;;18.14;48.88;101110.00;5022300;28;20029;-73
2021/10/19 08:15:12;;;;;;;15.43;10.10;;;;;;;18.30;48.95;101115.25;5023661;28;20060;-73
2021/10/19 08:17:38;;;;;;;17.67;10.82;;;;;;;18.36;47.74;101119.91;5023311;28;20081;-73
2021/10/19 08:20:04;;;;;;;19.23;10.20;;;;;;;18.48;46.88;101120.31;5023251;28;20263;-73
2021/10/19 08:22:31;;;;;;;16.63;9.70;;;;;;;18.64;47.53;101119.38;5023077;28;20057;-73
2021/10/19 08:24:58;;;;;;;19.15;11.23;;;;;;;18.32;47.17;101120.44;5022869;28;20079;-73
2021/10/19 08:27:25;;;;;;;17.27;10.85;;;;;;;18.17;46.92;101117.69;5023174;28;20025;-73
2021/10/19 08:29:52;;;;;;;20.45;11.30;;;;;;;18.50;48.17;101111.06;5023285;28;20026;-73
2021/10/19 08:32:17;;;;;;;17.30;9.10;;;;;;;18.50;47.77;101115.59;5023233;28;20041;-73
2021/10/19 08:34:42;;;;;;;13.40;9.00;;;;;;;18.56;46.35;101111.38;5038165;28;20030;-72
2021/10/19 08:37:08;;;;;;;16.77;8.77;;;;;;;18.63;46.54;101109.66;5023085;28;20331;-73
2021/10/19 08:39:33;;;;;;;15.45;10.27;;;;;;;18.45;46.31;101113.47;5022818;28;20034;-74
2021/10/19 08:42:00;;;;;;;28.23;12.48;;;;;;;18.64;46.53;101100.59;5023033;28;20311;-73
2021/10/19 08:44:25;;;;;;;20.00;12.18;;;;;;;18.57;46.27;101108.50;5022900;28;20250;-74
2021/10/19 08:46:52;;;;;;;15.77;9.80;;;;;;;18.69;46.43;101103.56;5022811;28;20018;-73
2021/10/19 08:49:17;;;;;;;15.50;10.20;;;;;;;18.68;45.72;101100.06;5022798;28;20260;-73
2021/10/19 08:51:43;;;;;;;16.50;10.13;;;;;;;18.98;45.48;101100.13;5022634;28;20022;-74
2021/10/19 08:54:08;;;;;;;36.63;22.08;;;;;;;18.92;45.83;101106.22;5022403;28;20508;-74
2021/10/19 08:56:40;;;;;;;14.88;9.05;;;;;;;19.03;45.32;101101.25;5022700;28;20048;-74
2021/10/19 08:59:06;;;;;;;24.35;11.90;;;;;;;19.05;45.16;101099.19;5022717;28;20022;-74
2021/10/19 09:01:34;;;;;;;17.40;9.65;;;;;;;19.17;43.77;101107.63;5022789;28;20033;-73
2021/10/19 09:03:59;;;;;;;21.17;10.57;;;;;;;19.12;44.01;101099.28;5022381;28;20192;-74
2021/10/19 09:06:35;;;;;;;15.57;10.15;;;;;;;19.05;43.72;101093.00;5022594;28;20061;-74
2021/10/19 09:09:24;;;;;;;14.95;9.07;;;;;;;18.54;45.17;101084.72;5021350;28;20056;-74
2021/10/19 09:11:52;;;;;;;13.05;8.95;;;;;;;18.91;44.63;101089.28;5022535;28;20032;-74
2021/10/19 09:14:20;;;;;;;23.52;11.45;;;;;;;18.76;43.98;101083.91;5022459;28;20256;-73
2021/10/19 09:16:46;;;;;;;15.38;9.52;;;;;;;18.91;44.66;101083.91;5022432;28;20037;-73
2021/10/19 09:19:14;;;;;;;18.60;10.27;;;;;;;18.92;44.57;101082.91;5022493;28;20042;-74
2021/10/19 09:21:49;;;;;;;12.98;7.13;;;;;;;18.85;44.22;101075.78;5022150;28;20202;-73
2021/10/19 09:24:19;;;;;;;15.13;8.60;;;;;;;18.85;43.89;101068.56;5021059;28;20029;-74
2021/10/19 09:27:01;;;;;;;21.30;9.82;;;;;;;18.85;46.62;101079.28;5037735;28;20034;-74
2021/10/19 09:29:29;;;;;;;14.90;8.38;;;;;;;19.02;46.47;101074.59;5021047;28;20038;-74
2021/10/19 09:31:57;;;;;;;18.60;7.45;;;;;;;19.03;44.19;101069.03;5022390;28;20093;-73
2021/10/19 09:34:26;;;;;;;9.65;6.47;;;;;;;19.01;43.12;101068.38;5022355;28;20042;-74
2021/10/19 09:36:51;;;;;;;10.00;6.15;;;;;;;19.00;43.70;101061.34;5022328;28;20029;-73
2021/10/19 09:39:50;;;;;;;12.00;6.60;;;;;;;19.09;44.25;101065.59;5023098;28;20049;-74
2021/10/19 09:42:27;;;;;;;11.95;7.20;;;;;;;19.04;42.42;101059.94;5026366;28;20034;-74
2021/10/19 09:44:58;;;;;;;10.48;5.88;;;;;;;19.03;43.37;101054.78;5026288;28;20097;-74
2021/10/19 09:47:37;;;;;;;10.98;6.15;;;;;;;18.67;42.56;101055.47;5026102;28;20314;-74
2021/10/19 09:50:05;;;;;;;10.23;6.90;;;;;;;18.77;45.02;101048.00;5026071;28;20080;-73
2021/10/19 09:52:34;;;;;;;10.85;6.10;;;;;;;18.62;42.80;101038.25;5025917;28;20385;-73
2021/10/19 09:55:02;;;;;;;13.10;7.45;;;;;;;18.40;44.35;101047.97;5025703;28;20092;-73
2021/10/19 09:57:28;;;;;;;13.00;6.93;;;;;;;18.50;44.04;101035.13;5026036;28;20037;-74
2021/10/19 09:59:53;;;;;;;18.70;11.70;;;;;;;18.67;44.42;101042.03;5026168;28;20030;-73
2021/10/19 10:02:19;;;;;;;10.65;7.03;;;;;;;18.83;44.80;101041.06;5026002;28;20029;-74
2021/10/19 10:04:44;;;;;;;10.93;6.05;;;;;;;18.84;44.10;101037.38;5025745;28;20140;-74
2021/10/19 10:07:12;;;;;;;12.52;6.90;;;;;;;18.94;44.11;101032.56;5025876;28;20026;-73
2021/10/19 10:09:40;;;;;;;9.20;5.95;;;;;;;19.04;44.09;101027.75;5025600;28;20255;-74
2021/10/19 10:12:08;;;;;;;11.82;7.72;;;;;;;18.93;43.44;101016.63;5025739;28;20137;-74
2021/10/19 10:14:48;;;;;;;14.90;6.43;;;;;;;18.96;43.90;101022.47;5025697;28;20041;-74
2021/10/19 10:17:14;;;;;;;19.55;7.93;;;;;;;18.86;43.53;101013.03;5025527;28;20045;-74
2021/10/19 10:19:41;;;;;;;16.40;5.97;;;;;;;18.91;44.20;101006.09;5025486;28;20049;-74
2021/10/19 10:22:18;;;;;;;7.68;5.80;;;;;;;18.98;42.13;101001.66;5025268;28;20030;-73
2021/10/19 10:24:45;;;;;;;10.02;5.30;;;;;;;19.03;44.20;100983.13;5025632;28;20144;-74
2021/10/19 10:27:16;;;;;;;9.80;4.72;;;;;;;19.01;42.19;100982.47;5025511;28;20049;-73
2021/10/19 10:29:48;;;;;;;11.52;6.43;;;;;;;18.79;41.82;100978.06;5025409;28;20036;-74
2021/10/19 10:32:28;;;;;;;8.82;5.15;;;;;;;18.79;43.44;100983.41;5024373;28;20316;-74
2021/10/19 10:35:07;;;;;;;12.15;4.78;;;;;;;18.94;41.89;100984.25;5025524;28;20025;-73
2021/10/19 10:37:44;;;;;;;6.72;4.45;;;;;;;18.92;41.73;100972.88;5025258;28;20308;-74
2021/10/19 10:40:12;;;;;;;6.82;4.40;;;;;;;18.93;42.31;100977.22;5025332;28;20042;-74
2021/10/19 10:42:40;;;;;;;7.32;4.82;;;;;;;18.94;42.08;100978.88;5024066;28;20034;-74
2021/10/19 10:45:33;;;;;;;9.43;4.35;;;;;;;19.02;40.96;100964.53;5024875;28;20040;-73
2021/10/19 10:48:05;;;;;;;12.68;5.10;;;;;;;19.08;42.93;100971.81;5024864;28;20243;-73
2021/10/19 10:50:33;;;;;;;8.98;6.13;;;;;;;18.98;41.69;100961.38;5024030;28;20105;-74
2021/10/19 10:53:10;;;;;;;6.45;4.20;;;;;;;19.08;39.66;100963.78;5024347;28;20080;-74
2021/10/19 10:55:49;;;;;;;7.28;4.60;;;;;;;19.05;40.06;100969.50;5024950;28;20041;-74
2021/10/19 10:58:32;;;;;;;7.97;4.80;;;;;;;19.16;40.60;100952.09;5024865;28;20038;-74
2021/10/19 11:01:14;;;;;;;11.50;5.55;;;;;;;18.83;39.56;100954.38;5025174;28;20045;-73
2021/10/19 11:03:41;;;;;;;10.15;5.68;;;;;;;18.78;41.61;100947.72;5024802;28;20032;-73
2021/10/19 11:06:07;;;;;;;10.40;5.85;;;;;;;18.59;40.59;100948.19;5024681;28;20220;-73
2021/10/19 11:08:35;;;;;;;9.70;5.45;;;;;;;18.60;41.54;100949.88;5024374;28;20037;-73
2021/10/19 11:11:12;;;;;;;8.45;4.60;;;;;;;18.84;40.19;100939.94;5024673;28;20034;-74